ADDS METAR Data INFO
IDs: Format: Raw Decoded Include TAF

Data at: 0510 UTC 23 May 2017

KABI 230452Z 18006KT 10SM CLR 18/18 A2995 RMK AO2 LTG DSNT N SLP125 T01830178 $
KABI 230352Z 17009KT 10SM CLR 18/17 A2995 RMK AO2 SLP127 T01780172 PNO $
KABI 230252Z 15005KT 10SM CLR 17/15 A2995 RMK AO2 LTG DSNT SE RAB00E08 TSE0155 SLP128 6//// T01720150 50014 PNO $
KABI 230159Z COR 09000 10SM FEW008 A2994 RMK AO2 LTG DSNT NE-SE TSE55 PNO $
KABI 230152Z 1 1/4SM TS BR FEW008 17/ A2996 RMK AO2 PK WND 02054/0135 LTG DSNT NE-SE RAB09E50GRB36E50 TSB22 SLP130 TS S MOV S P0019 T0172 $
KABI 230150Z 1 1/4SM TS BR 17/17 A2995 RMK AO2 PK WND 02054/0135 LTG DSNT NE-SE RAB09E50GRB36E50 TSB22 TS S MOV S P0019 $
KABI 230136Z 02037G54KT 1 1/4SM TSRAGR FEW008 BKN023 OVC034 18/17 A2995 RMK AO2 PK WND 02054/0135 LTG DSNT NE AND E RAB09GRB36 TSB22 TS OHD MOV S P0000 T01830172
KABI 230124Z 15012KT 10SM -TSRA SCT029 OVC036 21/18 A2990 RMK AO2 LTG DSNT N-E RAB09 TSB22 P0000 T02110178
KABI 230114Z 14014KT 10SM VCTS -RA BKN029 OVC035 21/18 A2991 RMK AO2 LTG DSNT NW-NE RAB09 P0000 T02110178
KABI 230052Z 13012KT 10SM SCT027 BKN036 OVC060 22/17 A2991 RMK AO2 LTG DSNT NW-NE SLP112 T02220172
KABI 222352Z 14007KT 10SM BKN033 OVC044 23/17 A2992 RMK AO2 LTG DSNT N AND NW SLP113 60000 T02330167 10244 20200 56015
KABI 222252Z 14007KT 10SM BKN037 OVC048 24/17 A2993 RMK AO2 SLP116 T02390167
KABI 222152Z 12008KT 10SM OVC037 24/16 A2994 RMK AO2 SLP120 T02390161
KABI 222052Z 15007KT 10SM SCT033 OVC042 24/17 A2997 RMK AO2 SLP128 60000 T02390167 57026
KABI 221959Z 12008KT 10SM SCT027 SCT034 24/17 A2999 RMK AO2 T02390172
KABI 221952Z 12007KT 10SM BKN027 23/17 A2999 RMK AO2 RAB41E42 SLP138 P0000 T02330167
KABI 221902Z 14006KT 10SM SCT022 23/17 A3001 RMK AO2 T02280167
KABI 221852Z 10008KT 10SM BKN021 22/17 A3002 RMK AO2 SLP148 T02220167
KABI 221752Z 06003KT 10SM BKN018 21/16 A3005 RMK AO2 SLP159 T02060161 10206 20139 58020
KABI 221652Z 06004KT 10SM BKN013 OVC034 18/16 A3007 RMK AO2 SLP170 T01830156
KABI 221552Z 08004KT 10SM OVC010 17/15 A3010 RMK AO2 SLP177 T01720150
KABI 221452Z 00000KT 10SM OVC006 16/15 A3011 RMK AO2 SLP182 T01610150 53007
KABI 221352Z 17009KT 10SM OVC005 15/14 A3009 RMK AO2 SLP175 T01500144
KABI 221341Z 14009KT 10SM OVC005 15/14 A3009 RMK AO2 T01500144
KABI 221252Z 13009KT 4SM BR OVC004 14/14 A3009 RMK AO2 CIG 003V008 SLP176 T01390139 $
KABI 221209Z 14006KT 1 3/4SM BR OVC003 14/14 A3009 RMK AO2 T01390139 $
KABI 221152Z 14006KT 4SM BR OVC004 14/14 A3009 RMK AO2 SLP175 70011 T01390139 10156 20133 56005 $
KABI 221149Z 13006KT 5SM BR OVC004 14/14 A3009 RMK AO2 $
KABI 221052Z 14007KT 9SM OVC005 14/14 A3009 RMK AO2 SLP175 T01390139 $
KABI 220952Z 13006KT 10SM OVC009 14/14 A3010 RMK AO2 SLP179 T01440139 $
KABI 220929Z 12008KT 10SM OVC009 14/13 A3011 RMK AO2 T01440133 $
KABI 220859Z 12009KT 10SM OVC010 14/13 A3011 RMK AO2 T01440133 $
KABI 220852Z 12012KT 10SM OVC009 14/13 A3011 RMK AO2 SLP181 T01440133 58001 $
KABI 220825Z 11010KT 10SM BKN009 14/13 A3013 RMK AO2 T01440128 $
KABI 220818Z 12009KT 10SM SCT009 14/12 A3013 RMK AO2 T01440122 $
KABI 220752Z 12011KT 10SM FEW090 BKN110 14/12 A3012 RMK AO2 SLP184 T01440117 $
KABI 220652Z 11004KT 10SM BKN100 OVC110 16/11 A3013 RMK AO2 SLP188 T01560106 $
KABI 220552Z 17008KT 10SM CLR 13/11 A3012 RMK AO2 SLP184 T01330106 10178 20133 402110133 50004 $
KABI 220452Z 15010KT 10SM CLR 14/10 A3013 RMK AO2 SLP190 T01390100 $
KABI 220352Z 21003KT 10SM CLR 16/09 A3013 RMK AO2 SLP189 T01560094 $
KABI 220252Z 07004KT 10SM CLR 17/09 A3011 RMK AO2 SLP179 T01670089 55001 $
KABI 220152Z 14010KT 10SM FEW070 16/10 A3010 RMK AO2 SLP178 T01610100 $
KABI 220052Z 14007KT 10SM SCT060 BKN095 17/11 A3011 RMK AO2 SLP184 T01720106 $
KABI 212352Z 13007KT 10SM BKN048 18/11 A3011 RMK AO2 SLP181 T01780111 10211 20172 58010 $
KABI 212252Z 18009KT 10SM OVC055 19/13 A3014 RMK AO2 LTG DSNT SE SLP190 T01890128 $
KABI 212152Z 14008KT 10SM BKN065 19/12 A3014 RMK AO2 SLP189 T01940117 $
KABI 212052Z 13010KT 10SM SCT065 BKN090 21/12 A3014 RMK AO2 SLP189 T02060117 56010 $
KABI 211952Z 11010KT 10SM BKN065 BKN090 21/11 A3015 RMK AO2 SLP193 T02060106 $
KABI 211852Z 10013KT 10SM BKN070 BKN085 20/11 A3014 RMK AO2 PRESFR SLP188 T02000106 $
KABI 211752Z 10009KT 10SM OVC065 20/11 A3017 RMK AO2 RAB02E20 SLP201 P0001 60011 T02000106 10200 20144 58003 $


Page loaded:  05:10 UTC  |   10:10 PM Pacific  |   11:10 PM Mountain  |   12:10 AM Central  |   01:10 AM Eastern

 

ADVISORIES

FORECASTS

FORECASTS

OBSERVATIONS

USER TOOLS

ABOUT US